sensor_id;sensor_type;location;lat;lon;timestamp;P1;durP1;ratioP1;P2;durP2;ratioP2
14738;SDS011;7461;52.440;13.540;2023-09-18T00:00:45;18.70;;;17.60;;
14738;SDS011;7461;52.440;13.540;2023-09-18T00:03:15;20.23;;;19.02;;
14738;SDS011;7461;52.440;13.540;2023-09-18T00:05:44;19.75;;;18.55;;
14738;SDS011;7461;52.440;13.540;2023-09-18T00:08:13;20.17;;;19.13;;
14738;SDS011;7461;52.440;13.540;2023-09-18T00:10:40;21.02;;;19.73;;
14738;SDS011;7461;52.440;13.540;2023-09-18T00:13:08;19.90;;;18.75;;
14738;SDS011;7461;52.440;13.540;2023-09-18T00:15:37;19.65;;;18.40;;
14738;SDS011;7461;52.440;13.540;2023-09-18T00:18:12;19.90;;;18.63;;
14738;SDS011;7461;52.440;13.540;2023-09-18T00:20:41;19.42;;;18.33;;
14738;SDS011;7461;52.440;13.540;2023-09-18T00:23:13;19.98;;;18.77;;
14738;SDS011;7461;52.440;13.540;2023-09-18T00:25:42;18.70;;;17.65;;
14738;SDS011;7461;52.440;13.540;2023-09-18T00:28:12;20.20;;;18.95;;
14738;SDS011;7461;52.440;13.540;2023-09-18T00:30:42;18.30;;;17.20;;
14738;SDS011;7461;52.440;13.540;2023-09-18T00:33:11;19.35;;;18.27;;
14738;SDS011;7461;52.440;13.540;2023-09-18T00:35:45;19.42;;;18.23;;
14738;SDS011;7461;52.440;13.540;2023-09-18T00:38:12;19.88;;;18.67;;
14738;SDS011;7461;52.440;13.540;2023-09-18T00:40:44;18.42;;;17.33;;
14738;SDS011;7461;52.440;13.540;2023-09-18T00:43:12;18.92;;;17.67;;
14738;SDS011;7461;52.440;13.540;2023-09-18T00:45:39;20.52;;;18.98;;
14738;SDS011;7461;52.440;13.540;2023-09-18T00:48:09;19.42;;;18.25;;
14738;SDS011;7461;52.440;13.540;2023-09-18T00:50:38;19.20;;;18.10;;
14738;SDS011;7461;52.440;13.540;2023-09-18T00:53:07;18.50;;;17.30;;
14738;SDS011;7461;52.440;13.540;2023-09-18T00:55:34;18.65;;;17.55;;
14738;SDS011;7461;52.440;13.540;2023-09-18T00:58:04;17.73;;;16.65;;
14738;SDS011;7461;52.440;13.540;2023-09-18T01:00:31;18.10;;;17.10;;
14738;SDS011;7461;52.440;13.540;2023-09-18T01:02:59;16.92;;;15.93;;
14738;SDS011;7461;52.440;13.540;2023-09-18T01:05:30;18.83;;;17.73;;
14738;SDS011;7461;52.440;13.540;2023-09-18T01:08:00;18.00;;;16.83;;
14738;SDS011;7461;52.440;13.540;2023-09-18T01:10:31;16.70;;;15.70;;
14738;SDS011;7461;52.440;13.540;2023-09-18T01:13:03;19.17;;;18.08;;
14738;SDS011;7461;52.440;13.540;2023-09-18T01:15:35;18.33;;;17.27;;
14738;SDS011;7461;52.440;13.540;2023-09-18T01:18:10;16.63;;;15.63;;
14738;SDS011;7461;52.440;13.540;2023-09-18T01:20:38;18.23;;;17.13;;
14738;SDS011;7461;52.440;13.540;2023-09-18T01:23:07;19.38;;;18.08;;
14738;SDS011;7461;52.440;13.540;2023-09-18T01:25:39;17.55;;;16.55;;
14738;SDS011;7461;52.440;13.540;2023-09-18T01:28:07;17.70;;;16.70;;
14738;SDS011;7461;52.440;13.540;2023-09-18T01:30:48;17.05;;;16.10;;
14738;SDS011;7461;52.440;13.540;2023-09-18T01:33:19;18.25;;;17.15;;
14738;SDS011;7461;52.440;13.540;2023-09-18T01:35:48;18.70;;;17.50;;
14738;SDS011;7461;52.440;13.540;2023-09-18T01:38:19;17.05;;;16.05;;
14738;SDS011;7461;52.440;13.540;2023-09-18T01:40:46;17.83;;;16.63;;
14738;SDS011;7461;52.440;13.540;2023-09-18T01:43:14;17.42;;;16.33;;
14738;SDS011;7461;52.440;13.540;2023-09-18T01:45:50;16.30;;;15.40;;
14738;SDS011;7461;52.440;13.540;2023-09-18T01:48:18;15.85;;;14.93;;
14738;SDS011;7461;52.440;13.540;2023-09-18T01:50:45;15.60;;;14.75;;
14738;SDS011;7461;52.440;13.540;2023-09-18T01:53:13;16.08;;;14.98;;
14738;SDS011;7461;52.440;13.540;2023-09-18T01:55:41;16.58;;;15.60;;
14738;SDS011;7461;52.440;13.540;2023-09-18T01:58:09;17.60;;;16.50;;
14738;SDS011;7461;52.440;13.540;2023-09-18T02:00:39;18.33;;;16.88;;
14738;SDS011;7461;52.440;13.540;2023-09-18T02:03:07;17.98;;;16.98;;
14738;SDS011;7461;52.440;13.540;2023-09-18T02:05:35;18.25;;;17.15;;
14738;SDS011;7461;52.440;13.540;2023-09-18T02:08:03;18.02;;;16.90;;
14738;SDS011;7461;52.440;13.540;2023-09-18T02:10:30;16.75;;;15.75;;
14738;SDS011;7461;52.440;13.540;2023-09-18T02:13:00;17.70;;;16.63;;
14738;SDS011;7461;52.440;13.540;2023-09-18T02:15:29;17.40;;;16.40;;
14738;SDS011;7461;52.440;13.540;2023-09-18T02:17:57;17.02;;;15.95;;
14738;SDS011;7461;52.440;13.540;2023-09-18T02:20:25;16.27;;;15.38;;
14738;SDS011;7461;52.440;13.540;2023-09-18T02:22:52;17.13;;;16.17;;
14738;SDS011;7461;52.440;13.540;2023-09-18T02:25:20;17.80;;;16.77;;
14738;SDS011;7461;52.440;13.540;2023-09-18T02:27:48;16.83;;;15.88;;
14738;SDS011;7461;52.440;13.540;2023-09-18T02:30:18;18.52;;;17.33;;
14738;SDS011;7461;52.440;13.540;2023-09-18T02:32:48;16.83;;;15.88;;
14738;SDS011;7461;52.440;13.540;2023-09-18T02:35:18;16.75;;;15.75;;
14738;SDS011;7461;52.440;13.540;2023-09-18T02:37:46;16.90;;;15.80;;
14738;SDS011;7461;52.440;13.540;2023-09-18T02:40:13;18.38;;;17.38;;
14738;SDS011;7461;52.440;13.540;2023-09-18T02:42:43;15.70;;;14.70;;
14738;SDS011;7461;52.440;13.540;2023-09-18T02:45:11;18.92;;;17.73;;
14738;SDS011;7461;52.440;13.540;2023-09-18T02:47:41;18.73;;;17.73;;
14738;SDS011;7461;52.440;13.540;2023-09-18T02:50:09;17.83;;;16.83;;
14738;SDS011;7461;52.440;13.540;2023-09-18T02:52:37;17.42;;;16.33;;
14738;SDS011;7461;52.440;13.540;2023-09-18T02:55:09;18.85;;;17.67;;
14738;SDS011;7461;52.440;13.540;2023-09-18T02:57:38;16.38;;;15.38;;
14738;SDS011;7461;52.440;13.540;2023-09-18T03:00:06;17.25;;;16.25;;
14738;SDS011;7461;52.440;13.540;2023-09-18T03:02:34;16.73;;;15.73;;
14738;SDS011;7461;52.440;13.540;2023-09-18T03:05:05;18.90;;;17.50;;
14738;SDS011;7461;52.440;13.540;2023-09-18T03:07:35;17.33;;;16.23;;
14738;SDS011;7461;52.440;13.540;2023-09-18T03:10:04;18.20;;;17.20;;
14738;SDS011;7461;52.440;13.540;2023-09-18T03:12:31;19.55;;;18.17;;
14738;SDS011;7461;52.440;13.540;2023-09-18T03:14:59;17.77;;;16.75;;
14738;SDS011;7461;52.440;13.540;2023-09-18T03:17:26;17.77;;;16.67;;
14738;SDS011;7461;52.440;13.540;2023-09-18T03:22:40;16.15;;;15.18;;
14738;SDS011;7461;52.440;13.540;2023-09-18T03:25:08;16.58;;;15.60;;
14738;SDS011;7461;52.440;13.540;2023-09-18T03:27:35;16.52;;;15.70;;
14738;SDS011;7461;52.440;13.540;2023-09-18T03:30:05;17.65;;;16.52;;
14738;SDS011;7461;52.440;13.540;2023-09-18T03:32:33;16.23;;;15.32;;
14738;SDS011;7461;52.440;13.540;2023-09-18T03:35:04;15.52;;;14.52;;
14738;SDS011;7461;52.440;13.540;2023-09-18T03:37:32;15.95;;;15.05;;
14738;SDS011;7461;52.440;13.540;2023-09-18T03:40:01;16.77;;;15.65;;
14738;SDS011;7461;52.440;13.540;2023-09-18T03:42:30;16.60;;;15.65;;
14738;SDS011;7461;52.440;13.540;2023-09-18T03:44:58;17.80;;;16.42;;
14738;SDS011;7461;52.440;13.540;2023-09-18T03:47:25;18.38;;;17.25;;
14738;SDS011;7461;52.440;13.540;2023-09-18T03:49:53;17.95;;;16.85;;
14738;SDS011;7461;52.440;13.540;2023-09-18T03:52:26;18.02;;;16.75;;
14738;SDS011;7461;52.440;13.540;2023-09-18T03:54:59;14.98;;;14.18;;
14738;SDS011;7461;52.440;13.540;2023-09-18T03:57:35;17.00;;;15.98;;
14738;SDS011;7461;52.440;13.540;2023-09-18T04:00:04;19.45;;;18.27;;
14738;SDS011;7461;52.440;13.540;2023-09-18T04:02:33;15.75;;;14.75;;
14738;SDS011;7461;52.440;13.540;2023-09-18T04:05:14;16.08;;;15.18;;
14738;SDS011;7461;52.440;13.540;2023-09-18T04:08:16;15.98;;;15.10;;
14738;SDS011;7461;52.440;13.540;2023-09-18T04:10:52;15.82;;;14.93;;
14738;SDS011;7461;52.440;13.540;2023-09-18T04:13:22;16.23;;;15.35;;
14738;SDS011;7461;52.440;13.540;2023-09-18T04:15:50;15.77;;;14.77;;
14738;SDS011;7461;52.440;13.540;2023-09-18T04:18:19;15.18;;;14.10;;
14738;SDS011;7461;52.440;13.540;2023-09-18T04:20:47;18.52;;;16.92;;
14738;SDS011;7461;52.440;13.540;2023-09-18T04:23:17;15.77;;;14.77;;
14738;SDS011;7461;52.440;13.540;2023-09-18T04:25:45;15.95;;;14.82;;
14738;SDS011;7461;52.440;13.540;2023-09-18T04:28:16;16.60;;;15.20;;
14738;SDS011;7461;52.440;13.540;2023-09-18T04:30:45;16.10;;;15.18;;
14738;SDS011;7461;52.440;13.540;2023-09-18T04:33:20;15.18;;;14.15;;
14738;SDS011;7461;52.440;13.540;2023-09-18T04:35:54;16.25;;;15.15;;
14738;SDS011;7461;52.440;13.540;2023-09-18T04:38:21;16.42;;;15.07;;
14738;SDS011;7461;52.440;13.540;2023-09-18T04:40:48;17.98;;;16.70;;
14738;SDS011;7461;52.440;13.540;2023-09-18T04:43:21;17.40;;;16.02;;
14738;SDS011;7461;52.440;13.540;2023-09-18T04:46:07;15.93;;;14.82;;
14738;SDS011;7461;52.440;13.540;2023-09-18T04:48:36;16.20;;;15.10;;
14738;SDS011;7461;52.440;13.540;2023-09-18T04:51:26;16.25;;;15.00;;
14738;SDS011;7461;52.440;13.540;2023-09-18T04:53:59;16.02;;;15.13;;
14738;SDS011;7461;52.440;13.540;2023-09-18T04:56:30;15.35;;;14.45;;
14738;SDS011;7461;52.440;13.540;2023-09-18T04:58:58;16.95;;;15.93;;
14738;SDS011;7461;52.440;13.540;2023-09-18T05:01:38;16.70;;;15.70;;
14738;SDS011;7461;52.440;13.540;2023-09-18T05:10:13;16.35;;;15.15;;
14738;SDS011;7461;52.440;13.540;2023-09-18T05:16:11;16.05;;;14.88;;
14738;SDS011;7461;52.440;13.540;2023-09-18T05:22:18;16.98;;;16.05;;
14738;SDS011;7461;52.440;13.540;2023-09-18T05:25:14;16.42;;;15.18;;
14738;SDS011;7461;52.440;13.540;2023-09-18T05:27:45;17.80;;;16.70;;
14738;SDS011;7461;52.440;13.540;2023-09-18T05:30:24;17.00;;;15.90;;
14738;SDS011;7461;52.440;13.540;2023-09-18T05:33:02;16.30;;;15.40;;
14738;SDS011;7461;52.440;13.540;2023-09-18T05:35:34;15.73;;;14.82;;
14738;SDS011;7461;52.440;13.540;2023-09-18T05:38:09;15.48;;;14.57;;
14738;SDS011;7461;52.440;13.540;2023-09-18T05:40:38;15.38;;;14.45;;
14738;SDS011;7461;52.440;13.540;2023-09-18T05:43:17;17.02;;;15.80;;
14738;SDS011;7461;52.440;13.540;2023-09-18T05:45:44;17.83;;;16.20;;
14738;SDS011;7461;52.440;13.540;2023-09-18T05:48:21;16.42;;;15.45;;
14738;SDS011;7461;52.440;13.540;2023-09-18T05:50:49;16.40;;;15.15;;
14738;SDS011;7461;52.440;13.540;2023-09-18T05:53:25;17.23;;;16.05;;
14738;SDS011;7461;52.440;13.540;2023-09-18T05:55:54;16.25;;;14.95;;
14738;SDS011;7461;52.440;13.540;2023-09-18T05:58:31;16.88;;;15.88;;
14738;SDS011;7461;52.440;13.540;2023-09-18T06:01:09;16.55;;;15.32;;
14738;SDS011;7461;52.440;13.540;2023-09-18T06:03:39;15.00;;;14.13;;
14738;SDS011;7461;52.440;13.540;2023-09-18T06:06:08;16.67;;;15.48;;
14738;SDS011;7461;52.440;13.540;2023-09-18T06:08:38;15.68;;;14.77;;
14738;SDS011;7461;52.440;13.540;2023-09-18T06:11:06;15.00;;;13.60;;
14738;SDS011;7461;52.440;13.540;2023-09-18T06:13:33;15.38;;;14.27;;
14738;SDS011;7461;52.440;13.540;2023-09-18T06:16:05;16.10;;;15.10;;
14738;SDS011;7461;52.440;13.540;2023-09-18T06:18:33;15.35;;;14.45;;
14738;SDS011;7461;52.440;13.540;2023-09-18T06:21:05;14.30;;;13.38;;
14738;SDS011;7461;52.440;13.540;2023-09-18T06:23:34;14.68;;;13.82;;
14738;SDS011;7461;52.440;13.540;2023-09-18T06:26:04;15.18;;;14.27;;
14738;SDS011;7461;52.440;13.540;2023-09-18T06:28:31;14.25;;;13.43;;
14738;SDS011;7461;52.440;13.540;2023-09-18T06:30:59;14.48;;;13.48;;
14738;SDS011;7461;52.440;13.540;2023-09-18T06:33:27;13.48;;;12.57;;
14738;SDS011;7461;52.440;13.540;2023-09-18T06:36:01;14.00;;;13.02;;
14738;SDS011;7461;52.440;13.540;2023-09-18T06:38:30;13.68;;;12.82;;
14738;SDS011;7461;52.440;13.540;2023-09-18T06:41:03;14.68;;;13.75;;
14738;SDS011;7461;52.440;13.540;2023-09-18T06:43:34;12.90;;;12.07;;
14738;SDS011;7461;52.440;13.540;2023-09-18T06:46:01;14.10;;;13.20;;
14738;SDS011;7461;52.440;13.540;2023-09-18T06:48:31;14.32;;;13.38;;
14738;SDS011;7461;52.440;13.540;2023-09-18T06:50:59;13.98;;;13.13;;
14738;SDS011;7461;52.440;13.540;2023-09-18T06:53:30;12.63;;;11.82;;
14738;SDS011;7461;52.440;13.540;2023-09-18T06:55:58;12.57;;;11.63;;
14738;SDS011;7461;52.440;13.540;2023-09-18T06:58:25;13.00;;;12.20;;
14738;SDS011;7461;52.440;13.540;2023-09-18T07:16:08;11.95;;;11.15;;
14738;SDS011;7461;52.440;13.540;2023-09-18T07:18:41;11.63;;;11.02;;
14738;SDS011;7461;52.440;13.540;2023-09-18T07:21:32;11.73;;;11.10;;
14738;SDS011;7461;52.440;13.540;2023-09-18T07:24:03;11.73;;;11.13;;
14738;SDS011;7461;52.440;13.540;2023-09-18T07:35:56;11.57;;;10.98;;
14738;SDS011;7461;52.440;13.540;2023-09-18T07:38:56;12.15;;;11.35;;
14738;SDS011;7461;52.440;13.540;2023-09-18T07:44:37;12.10;;;11.43;;
14738;SDS011;7461;52.440;13.540;2023-09-18T07:47:36;11.00;;;10.43;;
14738;SDS011;7461;52.440;13.540;2023-09-18T07:53:24;10.20;;;9.52;;
14738;SDS011;7461;52.440;13.540;2023-09-18T07:59:40;10.10;;;9.40;;
14738;SDS011;7461;52.440;13.540;2023-09-18T08:02:02;9.70;;;9.02;;
14738;SDS011;7461;52.440;13.540;2023-09-18T08:07:37;11.23;;;10.27;;
14738;SDS011;7461;52.440;13.540;2023-09-18T08:16:12;10.57;;;9.93;;
14738;SDS011;7461;52.440;13.540;2023-09-18T08:19:08;11.40;;;9.57;;
14738;SDS011;7461;52.440;13.540;2023-09-18T08:21:36;9.30;;;8.55;;
14738;SDS011;7461;52.440;13.540;2023-09-18T08:24:12;9.75;;;9.07;;
14738;SDS011;7461;52.440;13.540;2023-09-18T08:27:05;9.98;;;9.38;;
14738;SDS011;7461;52.440;13.540;2023-09-18T08:39:02;9.90;;;9.30;;
14738;SDS011;7461;52.440;13.540;2023-09-18T08:42:04;9.55;;;8.85;;
14738;SDS011;7461;52.440;13.540;2023-09-18T08:44:47;8.60;;;7.95;;
14738;SDS011;7461;52.440;13.540;2023-09-18T08:48:13;8.38;;;7.97;;
14738;SDS011;7461;52.440;13.540;2023-09-18T08:50:41;8.63;;;8.02;;
14738;SDS011;7461;52.440;13.540;2023-09-18T09:08:39;9.00;;;8.50;;
14738;SDS011;7461;52.440;13.540;2023-09-18T09:11:21;8.80;;;8.20;;
14738;SDS011;7461;52.440;13.540;2023-09-18T09:20:29;7.65;;;7.25;;
14738;SDS011;7461;52.440;13.540;2023-09-18T09:34:36;7.03;;;6.72;;
14738;SDS011;7461;52.440;13.540;2023-09-18T09:45:59;7.50;;;7.00;;
14738;SDS011;7461;52.440;13.540;2023-09-18T09:49:10;8.65;;;7.72;;
14738;SDS011;7461;52.440;13.540;2023-09-18T09:52:12;7.68;;;7.22;;
14738;SDS011;7461;52.440;13.540;2023-09-18T09:58:08;7.22;;;6.90;;
14738;SDS011;7461;52.440;13.540;2023-09-18T10:00:51;8.88;;;8.27;;
14738;SDS011;7461;52.440;13.540;2023-09-18T10:03:25;7.20;;;6.90;;
14738;SDS011;7461;52.440;13.540;2023-09-18T10:05:54;7.10;;;6.80;;
14738;SDS011;7461;52.440;13.540;2023-09-18T10:08:29;7.93;;;7.43;;
14738;SDS011;7461;52.440;13.540;2023-09-18T11:11:59;7.28;;;6.88;;
14738;SDS011;7461;52.440;13.540;2023-09-18T11:17:55;8.40;;;7.72;;
14738;SDS011;7461;52.440;13.540;2023-09-18T11:20:34;8.27;;;7.85;;
14738;SDS011;7461;52.440;13.540;2023-09-18T11:23:38;8.52;;;8.02;;
14738;SDS011;7461;52.440;13.540;2023-09-18T11:47:46;7.90;;;7.50;;
14738;SDS011;7461;52.440;13.540;2023-09-18T11:50:27;8.30;;;7.75;;
14738;SDS011;7461;52.440;13.540;2023-09-18T12:12:04;11.55;;;8.13;;
14738;SDS011;7461;52.440;13.540;2023-09-18T12:15:07;7.93;;;7.30;;
14738;SDS011;7461;52.440;13.540;2023-09-18T12:17:55;7.78;;;7.40;;
14738;SDS011;7461;52.440;13.540;2023-09-18T12:24:23;8.73;;;8.10;;
14738;SDS011;7461;52.440;13.540;2023-09-18T12:30:11;7.38;;;6.88;;
14738;SDS011;7461;52.440;13.540;2023-09-18T12:33:03;8.82;;;7.95;;
14738;SDS011;7461;52.440;13.540;2023-09-18T12:35:47;8.10;;;7.53;;
14738;SDS011;7461;52.440;13.540;2023-09-18T12:38:39;7.55;;;6.95;;
14738;SDS011;7461;52.440;13.540;2023-09-18T12:41:10;7.95;;;7.50;;
14738;SDS011;7461;52.440;13.540;2023-09-18T12:43:39;7.97;;;7.40;;
14738;SDS011;7461;52.440;13.540;2023-09-18T12:46:12;7.22;;;6.68;;
14738;SDS011;7461;52.440;13.540;2023-09-18T12:48:54;7.50;;;7.10;;
14738;SDS011;7461;52.440;13.540;2023-09-18T12:51:33;7.78;;;7.25;;
14738;SDS011;7461;52.440;13.540;2023-09-18T12:54:01;6.80;;;6.30;;
14738;SDS011;7461;52.440;13.540;2023-09-18T12:56:34;8.77;;;8.18;;
14738;SDS011;7461;52.440;13.540;2023-09-18T12:59:17;8.45;;;7.65;;
14738;SDS011;7461;52.440;13.540;2023-09-18T13:01:59;7.03;;;6.70;;
14738;SDS011;7461;52.440;13.540;2023-09-18T13:04:29;8.40;;;7.80;;
14738;SDS011;7461;52.440;13.540;2023-09-18T13:07:11;8.85;;;8.35;;
14738;SDS011;7461;52.440;13.540;2023-09-18T13:09:57;8.60;;;8.00;;
14738;SDS011;7461;52.440;13.540;2023-09-18T13:12:41;8.35;;;7.15;;
14738;SDS011;7461;52.440;13.540;2023-09-18T13:15:39;7.97;;;7.18;;
14738;SDS011;7461;52.440;13.540;2023-09-18T13:18:10;6.22;;;5.72;;
14738;SDS011;7461;52.440;13.540;2023-09-18T13:20:44;7.82;;;7.03;;
14738;SDS011;7461;52.440;13.540;2023-09-18T13:23:21;6.68;;;6.13;;
14738;SDS011;7461;52.440;13.540;2023-09-18T13:26:00;8.13;;;7.63;;
14738;SDS011;7461;52.440;13.540;2023-09-18T13:28:37;7.45;;;6.93;;
14738;SDS011;7461;52.440;13.540;2023-09-18T13:31:20;7.97;;;7.40;;
14738;SDS011;7461;52.440;13.540;2023-09-18T13:33:55;6.78;;;6.18;;
14738;SDS011;7461;52.440;13.540;2023-09-18T13:36:25;6.00;;;5.68;;
14738;SDS011;7461;52.440;13.540;2023-09-18T13:38:56;6.97;;;6.47;;
14738;SDS011;7461;52.440;13.540;2023-09-18T13:41:24;7.40;;;6.78;;
14738;SDS011;7461;52.440;13.540;2023-09-18T13:43:53;7.13;;;6.43;;
14738;SDS011;7461;52.440;13.540;2023-09-18T13:46:27;7.47;;;7.03;;
14738;SDS011;7461;52.440;13.540;2023-09-18T13:51:57;6.50;;;6.10;;
14738;SDS011;7461;52.440;13.540;2023-09-18T13:57:57;7.18;;;6.68;;
14738;SDS011;7461;52.440;13.540;2023-09-18T14:00:44;7.60;;;7.00;;
14738;SDS011;7461;52.440;13.540;2023-09-18T14:04:03;7.97;;;7.22;;
14738;SDS011;7461;52.440;13.540;2023-09-18T14:06:41;7.63;;;7.13;;
14738;SDS011;7461;52.440;13.540;2023-09-18T14:12:31;7.68;;;7.10;;
14738;SDS011;7461;52.440;13.540;2023-09-18T14:15:15;7.57;;;7.10;;
14738;SDS011;7461;52.440;13.540;2023-09-18T14:18:00;7.03;;;6.63;;
14738;SDS011;7461;52.440;13.540;2023-09-18T14:20:47;7.75;;;6.85;;
14738;SDS011;7461;52.440;13.540;2023-09-18T14:23:51;6.40;;;6.00;;
14738;SDS011;7461;52.440;13.540;2023-09-18T14:26:46;5.95;;;5.43;;
14738;SDS011;7461;52.440;13.540;2023-09-18T14:29:38;5.57;;;5.10;;
14738;SDS011;7461;52.440;13.540;2023-09-18T14:32:25;7.43;;;5.63;;
14738;SDS011;7461;52.440;13.540;2023-09-18T14:35:21;5.43;;;5.03;;
14738;SDS011;7461;52.440;13.540;2023-09-18T14:38:03;7.40;;;5.32;;
14738;SDS011;7461;52.440;13.540;2023-09-18T14:40:35;8.40;;;6.35;;
14738;SDS011;7461;52.440;13.540;2023-09-18T14:43:08;5.65;;;5.25;;
14738;SDS011;7461;52.440;13.540;2023-09-18T14:51:18;6.68;;;5.15;;
14738;SDS011;7461;52.440;13.540;2023-09-18T14:53:46;7.88;;;4.70;;
14738;SDS011;7461;52.440;13.540;2023-09-18T14:56:15;4.68;;;4.22;;
14738;SDS011;7461;52.440;13.540;2023-09-18T14:58:43;5.40;;;4.13;;
14738;SDS011;7461;52.440;13.540;2023-09-18T15:01:10;4.88;;;4.57;;
14738;SDS011;7461;52.440;13.540;2023-09-18T15:03:41;4.43;;;4.03;;
14738;SDS011;7461;52.440;13.540;2023-09-18T15:06:10;4.18;;;3.75;;
14738;SDS011;7461;52.440;13.540;2023-09-18T15:08:54;7.28;;;4.97;;
14738;SDS011;7461;52.440;13.540;2023-09-18T15:11:21;4.07;;;3.78;;
14738;SDS011;7461;52.440;13.540;2023-09-18T15:13:49;7.40;;;5.15;;
14738;SDS011;7461;52.440;13.540;2023-09-18T15:16:25;6.95;;;4.30;;
14738;SDS011;7461;52.440;13.540;2023-09-18T15:18:54;3.50;;;3.20;;
14738;SDS011;7461;52.440;13.540;2023-09-18T15:21:21;7.50;;;5.15;;
14738;SDS011;7461;52.440;13.540;2023-09-18T15:23:54;4.00;;;3.58;;
14738;SDS011;7461;52.440;13.540;2023-09-18T15:26:22;5.15;;;4.13;;
14738;SDS011;7461;52.440;13.540;2023-09-18T15:28:49;4.28;;;3.88;;
14738;SDS011;7461;52.440;13.540;2023-09-18T15:31:20;7.75;;;3.88;;
14738;SDS011;7461;52.440;13.540;2023-09-18T15:33:49;4.70;;;4.18;;
14738;SDS011;7461;52.440;13.540;2023-09-18T15:36:22;5.45;;;4.93;;
14738;SDS011;7461;52.440;13.540;2023-09-18T15:38:55;6.47;;;3.88;;
14738;SDS011;7461;52.440;13.540;2023-09-18T15:41:25;3.70;;;3.25;;
14738;SDS011;7461;52.440;13.540;2023-09-18T15:43:53;3.88;;;3.33;;
14738;SDS011;7461;52.440;13.540;2023-09-18T15:46:20;6.32;;;3.08;;
14738;SDS011;7461;52.440;13.540;2023-09-18T15:48:47;3.00;;;2.80;;
14738;SDS011;7461;52.440;13.540;2023-09-18T15:51:15;3.28;;;3.03;;
14738;SDS011;7461;52.440;13.540;2023-09-18T15:53:45;6.38;;;3.70;;
14738;SDS011;7461;52.440;13.540;2023-09-18T15:56:14;3.95;;;3.72;;
14738;SDS011;7461;52.440;13.540;2023-09-18T16:02:30;5.47;;;4.25;;
14738;SDS011;7461;52.440;13.540;2023-09-18T16:04:57;4.55;;;4.13;;
14738;SDS011;7461;52.440;13.540;2023-09-18T16:07:44;6.28;;;3.97;;
14738;SDS011;7461;52.440;13.540;2023-09-18T16:10:29;4.95;;;4.57;;
14738;SDS011;7461;52.440;13.540;2023-09-18T16:18:44;7.20;;;4.68;;
14738;SDS011;7461;52.440;13.540;2023-09-18T16:21:13;5.10;;;4.68;;
14738;SDS011;7461;52.440;13.540;2023-09-18T16:26:38;5.07;;;4.13;;
14738;SDS011;7461;52.440;13.540;2023-09-18T16:29:10;5.85;;;4.30;;
14738;SDS011;7461;52.440;13.540;2023-09-18T16:34:33;5.13;;;4.65;;
14738;SDS011;7461;52.440;13.540;2023-09-18T16:43:27;7.55;;;5.45;;
14738;SDS011;7461;52.440;13.540;2023-09-18T16:46:06;4.95;;;4.53;;
14738;SDS011;7461;52.440;13.540;2023-09-18T17:14:28;7.50;;;6.78;;
14738;SDS011;7461;52.440;13.540;2023-09-18T17:17:00;6.82;;;5.22;;
14738;SDS011;7461;52.440;13.540;2023-09-18T17:19:45;6.82;;;6.30;;
14738;SDS011;7461;52.440;13.540;2023-09-18T17:22:30;8.27;;;5.72;;
14738;SDS011;7461;52.440;13.540;2023-09-18T17:24:58;5.07;;;4.63;;
14738;SDS011;7461;52.440;13.540;2023-09-18T17:27:26;6.15;;;5.70;;
14738;SDS011;7461;52.440;13.540;2023-09-18T17:29:55;7.05;;;6.22;;
14738;SDS011;7461;52.440;13.540;2023-09-18T17:32:25;6.35;;;5.85;;
14738;SDS011;7461;52.440;13.540;2023-09-18T17:34:53;5.65;;;5.25;;
14738;SDS011;7461;52.440;13.540;2023-09-18T17:37:20;6.93;;;5.10;;
14738;SDS011;7461;52.440;13.540;2023-09-18T17:39:50;5.35;;;4.95;;
14738;SDS011;7461;52.440;13.540;2023-09-18T17:42:18;5.57;;;4.88;;
14738;SDS011;7461;52.440;13.540;2023-09-18T17:44:53;5.22;;;4.82;;
14738;SDS011;7461;52.440;13.540;2023-09-18T17:47:23;5.43;;;4.85;;
14738;SDS011;7461;52.440;13.540;2023-09-18T17:49:50;6.53;;;5.93;;
14738;SDS011;7461;52.440;13.540;2023-09-18T17:52:18;4.80;;;4.55;;
14738;SDS011;7461;52.440;13.540;2023-09-18T17:54:47;4.55;;;4.22;;
14738;SDS011;7461;52.440;13.540;2023-09-18T17:57:15;6.43;;;5.05;;
14738;SDS011;7461;52.440;13.540;2023-09-18T17:59:49;5.60;;;5.13;;
14738;SDS011;7461;52.440;13.540;2023-09-18T18:02:17;6.05;;;5.55;;
14738;SDS011;7461;52.440;13.540;2023-09-18T18:04:46;5.43;;;4.97;;
14738;SDS011;7461;52.440;13.540;2023-09-18T18:07:14;5.07;;;4.68;;
14738;SDS011;7461;52.440;13.540;2023-09-18T18:09:41;6.50;;;5.90;;
14738;SDS011;7461;52.440;13.540;2023-09-18T18:12:09;6.65;;;5.93;;
14738;SDS011;7461;52.440;13.540;2023-09-18T18:14:36;5.75;;;5.20;;
14738;SDS011;7461;52.440;13.540;2023-09-18T18:17:03;5.85;;;5.00;;
14738;SDS011;7461;52.440;13.540;2023-09-18T18:19:31;5.88;;;5.38;;
14738;SDS011;7461;52.440;13.540;2023-09-18T18:22:00;5.47;;;4.82;;
14738;SDS011;7461;52.440;13.540;2023-09-18T18:24:29;6.57;;;5.13;;
14738;SDS011;7461;52.440;13.540;2023-09-18T18:27:00;5.10;;;4.75;;
14738;SDS011;7461;52.440;13.540;2023-09-18T18:29:27;4.95;;;4.63;;
14738;SDS011;7461;52.440;13.540;2023-09-18T18:31:55;4.32;;;3.92;;
14738;SDS011;7461;52.440;13.540;2023-09-18T18:34:22;4.22;;;3.92;;
14738;SDS011;7461;52.440;13.540;2023-09-18T18:36:50;4.95;;;4.10;;
14738;SDS011;7461;52.440;13.540;2023-09-18T18:39:19;3.80;;;3.60;;
14738;SDS011;7461;52.440;13.540;2023-09-18T18:41:48;4.85;;;3.67;;
14738;SDS011;7461;52.440;13.540;2023-09-18T18:44:16;5.80;;;4.68;;
14738;SDS011;7461;52.440;13.540;2023-09-18T18:46:43;5.28;;;4.22;;
14738;SDS011;7461;52.440;13.540;2023-09-18T18:49:11;3.95;;;3.58;;
14738;SDS011;7461;52.440;13.540;2023-09-18T18:51:38;4.15;;;3.83;;
14738;SDS011;7461;52.440;13.540;2023-09-18T18:54:05;4.05;;;3.65;;
14738;SDS011;7461;52.440;13.540;2023-09-18T18:56:34;3.38;;;3.17;;
14738;SDS011;7461;52.440;13.540;2023-09-18T18:59:01;5.38;;;4.20;;
14738;SDS011;7461;52.440;13.540;2023-09-18T19:01:29;5.00;;;4.60;;
14738;SDS011;7461;52.440;13.540;2023-09-18T19:03:56;6.30;;;4.93;;
14738;SDS011;7461;52.440;13.540;2023-09-18T19:06:24;12.85;;;5.13;;
14738;SDS011;7461;52.440;13.540;2023-09-18T19:08:51;4.65;;;4.32;;
14738;SDS011;7461;52.440;13.540;2023-09-18T19:11:19;6.32;;;4.80;;
14738;SDS011;7461;52.440;13.540;2023-09-18T19:13:48;6.80;;;4.68;;
14738;SDS011;7461;52.440;13.540;2023-09-18T19:16:15;5.32;;;4.25;;
14738;SDS011;7461;52.440;13.540;2023-09-18T19:18:43;4.05;;;3.75;;
14738;SDS011;7461;52.440;13.540;2023-09-18T19:21:11;4.97;;;4.47;;
14738;SDS011;7461;52.440;13.540;2023-09-18T19:23:40;5.85;;;4.30;;
14738;SDS011;7461;52.440;13.540;2023-09-18T19:26:08;4.18;;;3.85;;
14738;SDS011;7461;52.440;13.540;2023-09-18T19:28:36;3.75;;;3.42;;
14738;SDS011;7461;52.440;13.540;2023-09-18T19:31:05;4.55;;;4.15;;
14738;SDS011;7461;52.440;13.540;2023-09-18T19:33:33;5.35;;;4.40;;
14738;SDS011;7461;52.440;13.540;2023-09-18T19:36:03;4.30;;;4.00;;
14738;SDS011;7461;52.440;13.540;2023-09-18T19:38:31;4.03;;;3.67;;
14738;SDS011;7461;52.440;13.540;2023-09-18T19:40:58;4.13;;;3.30;;
14738;SDS011;7461;52.440;13.540;2023-09-18T19:43:26;4.78;;;4.30;;
14738;SDS011;7461;52.440;13.540;2023-09-18T19:45:53;4.03;;;3.80;;
14738;SDS011;7461;52.440;13.540;2023-09-18T19:48:22;4.15;;;3.80;;
14738;SDS011;7461;52.440;13.540;2023-09-18T19:50:50;4.90;;;3.97;;
14738;SDS011;7461;52.440;13.540;2023-09-18T19:53:22;5.18;;;4.47;;
14738;SDS011;7461;52.440;13.540;2023-09-18T19:55:49;3.55;;;3.25;;
14738;SDS011;7461;52.440;13.540;2023-09-18T19:58:17;4.05;;;3.58;;